createdAt,value
2022-11-21T00:01:20.779Z,9.33
2022-11-21T00:03:48.868Z,10.57
2022-11-21T00:06:16.861Z,9.90
2022-11-21T00:08:46.388Z,8.50
2022-11-21T00:11:14.615Z,9.23
2022-11-21T00:13:42.690Z,10.63
2022-11-21T00:16:12.452Z,10.60
2022-11-21T00:18:40.641Z,11.70
2022-11-21T00:21:09.615Z,8.83
2022-11-21T00:23:37.671Z,9.10
2022-11-21T00:26:07.527Z,8.87
2022-11-21T00:28:35.375Z,9.20
2022-11-21T00:31:03.310Z,9.17
2022-11-21T00:33:31.076Z,10.10
2022-11-21T00:35:58.941Z,8.10
2022-11-21T00:38:28.212Z,8.77
2022-11-21T00:40:55.735Z,9.53
2022-11-21T00:43:24.627Z,8.43
2022-11-21T00:45:52.203Z,9.97
2022-11-21T00:48:19.841Z,10.17
2022-11-21T00:50:49.803Z,8.67
2022-11-21T00:53:17.369Z,8.90
2022-11-21T00:55:45.032Z,8.97
2022-11-21T00:58:12.664Z,9.10
2022-11-21T01:00:41.664Z,8.47
2022-11-21T01:03:09.446Z,9.57
2022-11-21T01:05:37.050Z,8.80
2022-11-21T01:08:05.010Z,10.50
2022-11-21T01:10:32.666Z,8.80
2022-11-21T01:13:00.272Z,9.20
2022-11-21T01:15:27.887Z,10.97
2022-11-21T01:17:56.821Z,8.63
2022-11-21T01:20:24.539Z,10.37
2022-11-21T01:22:52.203Z,8.20
2022-11-21T01:25:19.827Z,9.00
2022-11-21T01:27:47.441Z,9.90
2022-11-21T01:30:15.737Z,10.27
2022-11-21T01:32:43.301Z,8.40
2022-11-21T01:35:12.262Z,10.47
2022-11-21T01:37:39.898Z,9.03
2022-11-21T01:40:08.402Z,9.20
2022-11-21T01:42:50.589Z,11.57
2022-11-21T01:45:55.026Z,9.23
2022-11-21T01:48:26.357Z,9.00
2022-11-21T01:50:57.385Z,8.00
2022-11-21T01:53:25.869Z,9.47
2022-11-21T01:55:54.586Z,8.70
2022-11-21T01:58:23.744Z,8.47
2022-11-21T02:00:51.718Z,9.83
2022-11-21T02:03:23.657Z,9.40
2022-11-21T02:05:53.185Z,11.33
2022-11-21T02:08:24.106Z,10.60
2022-11-21T02:11:03.807Z,10.57
2022-11-21T02:13:31.422Z,9.10
2022-11-21T02:15:59.215Z,9.07
2022-11-21T02:18:26.913Z,8.47
2022-11-21T02:20:59.788Z,8.43
2022-11-21T02:23:34.854Z,8.63
2022-11-21T02:26:03.820Z,9.90
2022-11-21T02:28:31.611Z,9.33
2022-11-21T02:30:59.239Z,8.50
2022-11-21T02:33:26.867Z,9.43
2022-11-21T02:35:59.263Z,7.53
2022-11-21T02:38:31.679Z,8.63
2022-11-21T02:41:07.950Z,7.67
2022-11-21T02:43:42.235Z,8.37
2022-11-21T02:46:09.856Z,8.40
2022-11-21T02:48:38.267Z,9.03
2022-11-21T02:51:06.172Z,7.80
2022-11-21T02:53:33.783Z,7.77
2022-11-21T02:56:01.407Z,9.50
2022-11-21T02:58:30.892Z,9.00
2022-11-21T03:00:58.700Z,7.57
2022-11-21T03:03:26.289Z,9.20
2022-11-21T03:05:53.995Z,8.80
2022-11-21T03:08:21.553Z,8.43
2022-11-21T03:10:51.504Z,7.43
2022-11-21T03:13:19.116Z,7.60
2022-11-21T03:15:48.009Z,9.63
2022-11-21T03:18:15.585Z,8.83
2022-11-21T03:20:43.205Z,9.17
2022-11-21T03:23:10.787Z,8.27
2022-11-21T03:25:38.372Z,9.13
2022-11-21T03:28:05.955Z,8.23
2022-11-21T03:30:33.497Z,8.17
2022-11-21T03:33:02.418Z,8.67
2022-11-21T03:35:30.001Z,7.90
2022-11-21T03:37:57.630Z,7.90
2022-11-21T03:40:25.229Z,7.93
2022-11-21T03:42:52.899Z,8.20
2022-11-21T03:45:20.623Z,8.70
2022-11-21T03:47:48.232Z,8.03
2022-11-21T03:50:20.829Z,6.53
2022-11-21T03:52:48.484Z,8.23
2022-11-21T03:55:16.239Z,7.53
2022-11-21T03:57:43.854Z,7.50
2022-11-21T04:00:12.847Z,8.60
2022-11-21T04:02:40.443Z,8.00
2022-11-21T04:05:08.525Z,8.57
2022-11-21T04:07:37.488Z,8.70
2022-11-21T04:10:05.544Z,9.60
2022-11-21T04:12:33.161Z,7.83
2022-11-21T04:15:00.770Z,8.87
2022-11-21T04:17:28.997Z,7.40
2022-11-21T04:19:56.582Z,7.63
2022-11-21T04:22:24.340Z,7.63
2022-11-21T04:24:53.317Z,7.53
2022-11-21T04:27:20.936Z,8.30
2022-11-21T04:29:48.486Z,8.93
2022-11-21T04:32:16.111Z,7.70
2022-11-21T04:34:43.683Z,7.70
2022-11-21T04:37:11.946Z,7.93
2022-11-21T04:39:39.923Z,8.77
2022-11-21T04:42:08.828Z,8.80
2022-11-21T04:44:36.369Z,9.93
2022-11-21T04:47:05.693Z,8.47
2022-11-21T04:49:33.501Z,8.40
2022-11-21T04:52:01.043Z,8.50
2022-11-21T04:54:28.837Z,8.77
2022-11-21T04:56:56.987Z,7.83
2022-11-21T04:59:25.883Z,9.77
2022-11-21T05:01:53.428Z,8.20
2022-11-21T05:04:21.026Z,7.53
2022-11-21T05:06:48.728Z,8.80
2022-11-21T05:09:16.348Z,10.00
2022-11-21T05:12:01.637Z,7.40
2022-11-21T05:14:30.681Z,7.43
2022-11-21T05:16:58.362Z,6.23
2022-11-21T05:19:25.971Z,8.10
2022-11-21T05:21:53.776Z,8.30
2022-11-21T05:24:23.552Z,8.13
2022-11-21T05:26:51.191Z,8.07
2022-11-21T05:29:21.648Z,6.70
2022-11-21T05:31:52.816Z,8.70
2022-11-21T05:34:20.663Z,8.03
2022-11-21T05:36:48.344Z,9.17
2022-11-21T05:39:16.494Z,8.00
2022-11-21T05:41:44.211Z,8.00
2022-11-21T05:44:10.788Z,9.60
2022-11-21T05:46:38.398Z,9.23
2022-11-21T05:49:07.725Z,9.70
2022-11-21T05:51:35.613Z,7.67
2022-11-21T05:54:03.214Z,9.13
2022-11-21T05:56:31.080Z,7.80
2022-11-21T05:58:59.807Z,6.93
2022-11-21T06:01:41.422Z,8.00
2022-11-21T06:04:11.727Z,7.33
2022-11-21T06:06:39.754Z,7.70
2022-11-21T06:09:07.582Z,7.63
2022-11-21T06:11:35.150Z,8.20
2022-11-21T06:14:02.683Z,7.63
2022-11-21T06:16:30.781Z,8.20
2022-11-21T06:18:59.017Z,7.90
2022-11-21T06:21:34.080Z,7.57
2022-11-21T06:24:01.941Z,7.40
2022-11-21T06:26:29.639Z,6.20
2022-11-21T06:28:57.451Z,5.97
2022-11-21T06:31:26.974Z,7.37
2022-11-21T06:33:56.059Z,8.10
2022-11-21T06:36:24.024Z,9.87
2022-11-21T06:38:54.851Z,7.47
2022-11-21T06:41:24.255Z,8.13
2022-11-21T06:43:52.247Z,7.10
2022-11-21T06:46:20.042Z,8.67
2022-11-21T06:48:48.520Z,8.90
2022-11-21T06:51:19.134Z,10.43
2022-11-21T06:53:48.080Z,8.93
2022-11-21T06:56:16.998Z,8.50
2022-11-21T06:58:44.585Z,8.00
2022-11-21T07:01:12.227Z,8.13
2022-11-21T07:03:42.431Z,10.47
2022-11-21T07:06:10.118Z,8.33
2022-11-21T07:08:37.938Z,25.93
2022-11-21T07:13:56.464Z,8.20
2022-11-21T07:16:25.934Z,11.10
2022-11-21T07:18:53.600Z,9.27
2022-11-21T07:21:21.220Z,9.53
2022-11-21T07:23:48.808Z,9.07
2022-11-21T07:26:16.435Z,9.40
2022-11-21T07:28:44.334Z,9.20
2022-11-21T07:31:14.357Z,9.30
2022-11-21T07:33:44.088Z,8.53
2022-11-21T07:36:12.015Z,11.23
2022-11-21T07:38:41.093Z,8.80
2022-11-21T07:41:08.808Z,10.47
2022-11-21T07:43:36.442Z,9.40
2022-11-21T07:46:04.108Z,9.57
2022-11-21T07:48:33.085Z,7.77
2022-11-21T07:51:04.873Z,8.53
2022-11-21T07:53:32.576Z,8.37
2022-11-21T07:56:01.195Z,8.97
2022-11-21T07:58:28.845Z,8.60
2022-11-21T08:00:56.461Z,8.67
2022-11-21T08:03:25.204Z,7.73
2022-11-21T08:05:54.137Z,8.40
2022-11-21T08:08:21.848Z,6.20
2022-11-21T08:10:51.306Z,8.23
2022-11-21T08:13:19.034Z,8.50
2022-11-21T08:15:46.692Z,8.37
2022-11-21T08:18:18.919Z,8.30
2022-11-21T08:20:49.004Z,8.53
2022-11-21T08:23:17.918Z,7.70
2022-11-21T08:25:45.681Z,8.13
2022-11-21T08:28:13.775Z,8.67
2022-11-21T08:30:42.162Z,8.03
2022-11-21T08:33:09.747Z,7.30
2022-11-21T08:35:38.689Z,9.60
2022-11-21T08:38:06.924Z,8.97
2022-11-21T08:40:37.053Z,9.13
2022-11-21T08:43:06.535Z,8.90
2022-11-21T08:45:34.921Z,9.00
2022-11-21T08:48:02.852Z,9.63
2022-11-21T08:50:31.813Z,8.70
2022-11-21T08:53:00.608Z,9.10
2022-11-21T08:55:28.755Z,8.70
2022-11-21T08:57:57.668Z,8.67
2022-11-21T09:00:25.363Z,8.63
2022-11-21T09:02:52.889Z,9.57
2022-11-21T09:05:20.542Z,8.67
2022-11-21T09:07:48.387Z,10.43
2022-11-21T09:10:16.632Z,10.03
2022-11-21T09:12:44.209Z,11.27
2022-11-21T09:15:31.114Z,11.63
2022-11-21T09:18:04.299Z,9.40
2022-11-21T09:20:32.858Z,9.33
2022-11-21T09:23:05.258Z,10.33
2022-11-21T09:25:32.823Z,11.40
2022-11-21T09:28:01.409Z,9.87
2022-11-21T09:30:30.421Z,11.60
2022-11-21T09:33:01.490Z,11.00
2022-11-21T09:35:29.384Z,10.43
2022-11-21T09:37:56.986Z,11.23
2022-11-21T09:40:25.432Z,10.60
2022-11-21T09:43:07.243Z,10.60
2022-11-21T09:45:40.341Z,12.07
2022-11-21T09:48:13.580Z,9.80
2022-11-21T09:51:14.148Z,9.27
2022-11-21T09:53:40.580Z,11.67
2022-11-21T09:56:13.987Z,12.70
2022-11-21T09:58:45.362Z,13.27
2022-11-21T10:01:15.975Z,12.13
2022-11-21T10:03:47.355Z,11.53
2022-11-21T10:06:20.264Z,13.90
2022-11-21T10:08:59.220Z,11.70
2022-11-21T10:11:58.054Z,10.70
2022-11-21T10:14:39.203Z,12.07
2022-11-21T10:17:19.580Z,12.30
2022-11-21T10:20:04.086Z,11.63
2022-11-21T10:22:51.227Z,10.80
2022-11-21T10:25:27.220Z,13.33
2022-11-21T10:27:59.400Z,12.87
2022-11-21T10:30:27.003Z,13.47
2022-11-21T10:32:59.563Z,15.30
2022-11-21T10:35:32.239Z,13.23
2022-11-21T10:38:02.739Z,12.97
2022-11-21T10:40:36.800Z,10.57
2022-11-21T10:43:23.661Z,13.60
2022-11-21T10:45:51.727Z,14.10
2022-11-21T10:48:20.680Z,14.10
2022-11-21T10:51:04.548Z,11.37
2022-11-21T10:53:50.644Z,15.13
2022-11-21T10:56:21.282Z,12.83
2022-11-21T10:58:50.423Z,11.57
2022-11-21T11:01:24.244Z,11.90
2022-11-21T11:04:28.128Z,11.00
2022-11-21T11:06:56.959Z,10.83
2022-11-21T11:09:28.075Z,9.30
2022-11-21T11:12:16.064Z,8.53
2022-11-21T11:14:52.270Z,10.20
2022-11-21T11:17:29.167Z,8.77
2022-11-21T11:20:07.764Z,8.63
2022-11-21T11:22:35.390Z,8.13
2022-11-21T11:25:05.906Z,8.40
2022-11-21T11:27:33.535Z,10.03
2022-11-21T11:30:07.591Z,8.47
2022-11-21T11:32:40.946Z,9.60
2022-11-21T11:35:23.176Z,9.70
2022-11-21T11:38:01.578Z,9.10
2022-11-21T11:40:33.637Z,9.67
2022-11-21T11:43:38.697Z,9.17
2022-11-21T11:46:38.620Z,8.90
2022-11-21T11:49:20.320Z,9.50
2022-11-21T11:51:54.929Z,8.67
2022-11-21T11:54:27.584Z,8.20
2022-11-21T11:56:55.880Z,9.57
2022-11-21T11:59:27.978Z,10.70
2022-11-21T12:02:05.295Z,7.77
2022-11-21T12:04:41.377Z,8.50
2022-11-21T12:08:20.131Z,9.70
2022-11-21T12:10:14.975Z,9.20
2022-11-21T12:12:44.665Z,9.30
2022-11-21T12:15:34.018Z,10.60
2022-11-21T12:18:12.636Z,9.73
2022-11-21T12:20:49.308Z,8.80
2022-11-21T12:23:19.607Z,9.17
2022-11-21T12:25:58.206Z,9.60
2022-11-21T12:28:32.331Z,7.60
2022-11-21T12:31:10.322Z,8.13
2022-11-21T12:33:46.991Z,8.50
2022-11-21T12:36:33.155Z,8.27
2022-11-21T12:39:25.758Z,8.13
2022-11-21T12:42:18.577Z,7.20
2022-11-21T12:45:07.795Z,5.80
2022-11-21T12:48:40.969Z,6.60
2022-11-21T12:51:42.282Z,8.03
2022-11-21T12:54:34.214Z,8.20
2022-11-21T12:57:11.320Z,8.03
2022-11-21T12:59:50.985Z,8.60
2022-11-21T13:02:31.417Z,8.90
2022-11-21T13:05:01.692Z,9.07
2022-11-21T13:07:31.629Z,9.80
2022-11-21T13:10:03.698Z,8.90
2022-11-21T13:12:40.847Z,9.03
2022-11-21T13:15:20.403Z,9.00
2022-11-21T13:17:53.567Z,9.13
2022-11-21T13:20:32.535Z,10.30
2022-11-21T13:23:03.556Z,8.10
2022-11-21T13:25:43.358Z,7.90
2022-11-21T13:28:33.700Z,8.97
2022-11-21T13:31:03.388Z,8.00
2022-11-21T13:33:48.314Z,7.50
2022-11-21T13:36:43.231Z,6.33
2022-11-21T13:39:29.623Z,6.70
2022-11-21T13:42:21.045Z,6.90
2022-11-21T13:44:49.200Z,6.23
2022-11-21T13:48:03.475Z,5.70
2022-11-21T13:50:56.967Z,7.23
2022-11-21T13:53:41.216Z,5.07
2022-11-21T13:56:25.500Z,6.73
2022-11-21T13:59:05.364Z,6.83
2022-11-21T14:02:00.349Z,5.60
2022-11-21T14:05:02.033Z,6.57
2022-11-21T14:07:32.280Z,6.63
2022-11-21T14:10:02.445Z,7.20
2022-11-21T14:12:35.234Z,7.10
2022-11-21T14:15:33.614Z,6.17
2022-11-21T14:18:02.218Z,7.60
2022-11-21T14:20:32.481Z,6.40
2022-11-21T14:23:04.243Z,7.60
2022-11-21T14:25:43.772Z,7.47
2022-11-21T14:28:16.292Z,6.80
2022-11-21T14:30:45.812Z,5.70
2022-11-21T14:33:24.551Z,6.60
2022-11-21T14:35:54.690Z,6.70
2022-11-21T14:38:23.442Z,5.57
2022-11-21T14:40:51.314Z,4.90
2022-11-21T14:43:33.048Z,5.83
2022-11-21T14:46:01.993Z,4.93
2022-11-21T14:48:31.145Z,5.90
2022-11-21T14:51:01.831Z,6.67
2022-11-21T14:53:29.691Z,5.60
2022-11-21T14:56:01.497Z,6.77
2022-11-21T14:58:29.532Z,5.40
2022-11-21T15:01:05.569Z,5.70
2022-11-21T15:03:33.423Z,5.90
2022-11-21T15:06:05.951Z,6.90
2022-11-21T15:10:05.363Z,4.90
2022-11-21T15:11:25.836Z,6.03
2022-11-21T15:14:16.952Z,5.83
2022-11-21T15:16:49.008Z,5.53
2022-11-21T15:19:21.916Z,7.00
2022-11-21T15:21:51.315Z,5.50
2022-11-21T15:24:28.630Z,4.63
2022-11-21T15:26:56.199Z,5.33
2022-11-21T15:29:24.465Z,4.90
2022-11-21T15:32:14.100Z,5.70
2022-11-21T15:34:56.691Z,5.37
2022-11-21T15:37:25.249Z,5.20
2022-11-21T15:39:54.168Z,6.13
2022-11-21T15:42:38.307Z,5.20
2022-11-21T15:45:23.798Z,6.30
2022-11-21T15:47:52.914Z,4.90
2022-11-21T15:50:23.994Z,6.10
2022-11-21T15:52:53.353Z,4.63
2022-11-21T15:55:23.147Z,6.57
2022-11-21T15:57:50.776Z,6.40
2022-11-21T16:00:18.889Z,5.30
2022-11-21T16:02:47.463Z,5.40
2022-11-21T16:05:16.964Z,4.77
2022-11-21T16:07:44.748Z,4.90
2022-11-21T16:10:19.928Z,4.97
2022-11-21T16:12:51.987Z,5.13
2022-11-21T16:15:19.622Z,5.83
2022-11-21T16:17:47.680Z,6.33
2022-11-21T16:20:16.946Z,5.53
2022-11-21T16:22:47.807Z,5.37
2022-11-21T16:25:15.746Z,6.80
2022-11-21T16:27:43.331Z,7.23
2022-11-21T16:30:12.151Z,6.10
2022-11-21T16:32:39.782Z,6.47
2022-11-21T16:35:07.976Z,5.50
2022-11-21T16:37:36.925Z,6.93
2022-11-21T16:40:05.182Z,8.37
2022-11-21T16:42:32.818Z,7.67
2022-11-21T16:45:00.610Z,5.70
2022-11-21T16:47:28.203Z,6.93
2022-11-21T16:49:55.943Z,5.67
2022-11-21T16:52:23.605Z,6.03
2022-11-21T16:54:52.681Z,7.37
2022-11-21T16:57:20.279Z,6.47
2022-11-21T16:59:47.857Z,5.50
2022-11-21T17:02:15.480Z,5.93
2022-11-21T17:04:43.116Z,6.00
2022-11-21T17:07:10.879Z,6.03
2022-11-21T17:09:38.599Z,6.47
2022-11-21T17:12:08.055Z,5.70
2022-11-21T17:14:35.927Z,6.00
2022-11-21T17:17:03.564Z,6.30
2022-11-21T17:19:31.343Z,6.80
2022-11-21T17:22:00.038Z,6.30
2022-11-21T17:24:27.963Z,5.87
2022-11-21T17:26:57.222Z,5.63
2022-11-21T17:29:26.164Z,5.27
2022-11-21T17:31:53.712Z,5.57
2022-11-21T17:34:22.495Z,5.87
2022-11-21T17:36:50.364Z,5.17
2022-11-21T17:39:18.773Z,6.43
2022-11-21T17:41:46.301Z,6.30
2022-11-21T17:44:14.864Z,6.80
2022-11-21T17:46:43.782Z,5.63
2022-11-21T17:49:12.262Z,6.30
2022-11-21T17:51:40.889Z,6.90
2022-11-21T17:54:11.073Z,6.13
2022-11-21T17:56:45.903Z,5.57
2022-11-21T17:59:18.843Z,5.70
2022-11-21T18:01:47.947Z,7.10
2022-11-21T18:04:17.696Z,5.90
2022-11-21T18:06:45.378Z,6.07
2022-11-21T18:09:13.797Z,5.97
2022-11-21T18:11:41.782Z,6.33
2022-11-21T18:14:10.794Z,5.10
2022-11-21T18:16:39.313Z,6.60
2022-11-21T18:19:08.574Z,6.67
2022-11-21T18:21:36.788Z,7.40
2022-11-21T18:24:04.682Z,7.00
2022-11-21T18:26:34.163Z,8.80
2022-11-21T18:31:50.939Z,8.10
2022-11-21T18:34:20.026Z,6.90
2022-11-21T18:36:48.809Z,10.27
2022-11-21T18:39:16.481Z,9.90
2022-11-21T18:41:44.404Z,8.33
2022-11-21T18:44:20.063Z,7.80
2022-11-21T18:46:49.493Z,10.63
2022-11-21T18:49:21.612Z,9.10
2022-11-21T18:51:50.016Z,7.83
2022-11-21T18:54:17.762Z,9.33
2022-11-21T18:56:45.503Z,7.83
2022-11-21T18:59:13.190Z,7.53
2022-11-21T19:01:40.888Z,8.17
2022-11-21T19:04:09.226Z,9.07
2022-11-21T19:06:38.300Z,7.90
2022-11-21T19:09:05.936Z,7.60
2022-11-21T19:11:33.514Z,8.03
2022-11-21T19:14:01.338Z,8.10
2022-11-21T19:16:33.791Z,7.87
2022-11-21T19:21:50.820Z,7.83
2022-11-21T19:24:19.475Z,8.17
2022-11-21T19:26:50.108Z,7.13
2022-11-21T19:29:18.576Z,7.23
2022-11-21T19:31:46.347Z,10.00
2022-11-21T19:34:14.706Z,7.43
2022-11-21T19:36:42.794Z,11.10
2022-11-21T19:39:12.461Z,11.57
2022-11-21T19:41:40.372Z,10.47
2022-11-21T19:44:08.006Z,7.47
2022-11-21T19:46:37.472Z,7.50
2022-11-21T19:49:06.589Z,9.40
2022-11-21T19:51:36.140Z,9.53
2022-11-21T19:54:05.315Z,6.40
2022-11-21T19:56:37.265Z,8.93
2022-11-21T19:59:05.629Z,9.53
2022-11-21T20:01:35.726Z,7.70
2022-11-21T20:04:05.811Z,6.97
2022-11-21T20:06:35.820Z,9.40
2022-11-21T20:09:06.954Z,8.47
2022-11-21T20:11:36.805Z,7.47
2022-11-21T20:14:04.467Z,7.17
2022-11-21T20:16:34.423Z,6.57
2022-11-21T20:19:03.215Z,6.93
2022-11-21T20:21:31.337Z,8.00
2022-11-21T20:23:59.484Z,7.97
2022-11-21T20:26:27.482Z,8.20
2022-11-21T20:28:56.458Z,7.30
2022-11-21T20:31:26.868Z,6.90
2022-11-21T20:33:56.670Z,8.77
2022-11-21T20:36:26.772Z,11.30
2022-11-21T20:38:55.806Z,13.03
2022-11-21T20:41:25.362Z,9.33
2022-11-21T20:44:56.768Z,8.63
2022-11-21T20:46:43.893Z,8.30
2022-11-21T20:49:12.424Z,8.67
2022-11-21T20:54:28.110Z,8.10
2022-11-21T20:56:56.096Z,8.20
2022-11-21T20:59:26.484Z,7.70
2022-11-21T21:01:54.281Z,7.13
2022-11-21T21:04:24.129Z,9.57
2022-11-21T21:06:52.717Z,7.53
2022-11-21T21:09:20.312Z,9.20
2022-11-21T21:11:52.908Z,7.37
2022-11-21T21:14:21.549Z,7.47
2022-11-21T21:16:50.845Z,6.97
2022-11-21T21:19:18.609Z,6.87
2022-11-21T21:21:46.267Z,8.50
2022-11-21T21:24:14.540Z,7.40
2022-11-21T21:26:43.862Z,8.13
2022-11-21T21:29:12.042Z,11.00
2022-11-21T21:31:43.890Z,9.07
2022-11-21T21:34:17.073Z,7.87
2022-11-21T21:36:44.725Z,8.70
2022-11-21T21:39:12.476Z,8.20
2022-11-21T21:41:44.191Z,5.90
2022-11-21T21:44:11.927Z,13.47
2022-11-21T21:46:39.687Z,11.00
2022-11-21T21:49:07.256Z,11.03
2022-11-21T21:51:37.095Z,8.80
2022-11-21T21:54:06.169Z,7.23
2022-11-21T21:56:34.552Z,7.87
2022-11-21T21:59:02.348Z,6.20
2022-11-21T22:01:31.472Z,7.07
2022-11-21T22:04:01.103Z,6.23
2022-11-21T22:06:29.522Z,6.97
2022-11-21T22:08:58.552Z,6.10
2022-11-21T22:11:27.886Z,7.60
2022-11-21T22:13:57.627Z,6.30
2022-11-21T22:16:26.138Z,7.10
2022-11-21T22:18:54.106Z,6.80
2022-11-21T22:21:23.686Z,7.30
2022-11-21T22:24:17.727Z,7.57
2022-11-21T22:26:40.884Z,7.60
2022-11-21T22:29:08.768Z,6.20
2022-11-21T22:31:37.338Z,8.70
2022-11-21T22:34:05.258Z,8.20
2022-11-21T22:36:32.916Z,6.60
2022-11-21T22:39:00.480Z,5.90
2022-11-21T22:41:28.643Z,8.60
2022-11-21T22:44:02.189Z,6.40
2022-11-21T22:46:31.077Z,8.10
2022-11-21T22:48:59.221Z,6.80
2022-11-21T22:51:30.149Z,6.57
2022-11-21T22:53:58.269Z,8.47
2022-11-21T22:56:26.981Z,7.17
2022-11-21T22:58:55.972Z,6.43
2022-11-21T23:01:26.614Z,7.10
2022-11-21T23:03:56.357Z,6.90
2022-11-21T23:06:26.011Z,7.43
2022-11-21T23:08:54.108Z,8.67
2022-11-21T23:11:24.258Z,8.57
2022-11-21T23:13:53.254Z,7.80
2022-11-21T23:16:21.338Z,9.33
2022-11-21T23:18:53.053Z,8.90
2022-11-21T23:21:21.191Z,8.10
2022-11-21T23:23:48.995Z,9.43
2022-11-21T23:26:16.798Z,8.77
2022-11-21T23:28:44.471Z,8.70
2022-11-21T23:31:12.119Z,7.47
2022-11-21T23:33:39.856Z,7.17
2022-11-21T23:36:08.941Z,9.77
2022-11-21T23:38:36.562Z,9.10
2022-11-21T23:41:04.195Z,9.67
2022-11-21T23:43:31.751Z,9.43
2022-11-21T23:45:59.421Z,9.50
2022-11-21T23:48:27.273Z,8.67
2022-11-21T23:50:55.293Z,9.63
2022-11-21T23:53:24.423Z,10.77
2022-11-21T23:55:51.963Z,10.30
2022-11-21T23:58:19.496Z,9.60
